Terminal Aerodrome Forecast
Issued by NWS

Home | Current Version | Previous Version | Text Only | Print | Product List | Glossary On
Versions: 1 2 3 4 5 6 7 8 9 10 11 12 13 14 15 16 17 18 19 20 21 22 23 24 25 26 27 28
166
FTUS45 KLKN 192320
TAFELY
TAF
KELY 192320Z 2000/2024 29015KT 3SM -SHSN OVC030
      TEMPO 2000/2002 29015G30KT 1/4SM +SN FG SCT007 OVC012
     FM200200 32015G25KT 3SM -SHSN BLSN OVC015
     FM200600 35009KT 4SM -SHSN OVC020
     FM201800 36015KT P6SM VCSH BKN025 OVC050=

USA.gov is the U.S. government's official web portal to all federal, state and local government web resources and services.